createdAt,value
2022-12-26T00:02:55.822Z,8.047791
2022-12-26T00:06:20.959Z,8.047791
2022-12-26T00:09:46.220Z,8.108215
2022-12-26T00:13:37.893Z,8.118286
2022-12-26T00:16:36.883Z,8.158569
2022-12-26T00:20:02.072Z,8.148499
2022-12-26T00:23:27.275Z,8.188782
2022-12-26T00:26:52.528Z,8.158569
2022-12-26T00:30:17.804Z,8.178711
2022-12-26T00:33:43.075Z,8.198853
2022-12-26T00:37:08.281Z,8.259277
2022-12-26T00:40:33.549Z,8.259277
2022-12-26T00:43:58.787Z,8.279419
2022-12-26T00:47:24.118Z,8.329773
2022-12-26T00:50:49.333Z,8.359985
2022-12-26T00:54:14.598Z,8.400269
2022-12-26T00:57:39.861Z,8.470764
2022-12-26T01:01:05.173Z,8.500977
2022-12-26T01:04:30.419Z,8.531189
2022-12-26T01:08:19.309Z,8.561401
2022-12-26T01:11:20.859Z,8.611755
2022-12-26T01:14:46.144Z,8.551331
2022-12-26T01:18:11.412Z,8.621826
2022-12-26T01:21:36.731Z,8.621826
2022-12-26T01:25:01.897Z,8.611755
2022-12-26T01:28:27.231Z,8.611755
2022-12-26T01:31:52.567Z,8.631897
2022-12-26T01:35:17.708Z,8.621826
2022-12-26T01:38:42.983Z,8.631897
2022-12-26T01:42:08.201Z,8.682251
2022-12-26T01:45:33.548Z,8.682251
2022-12-26T01:48:58.724Z,8.79303
2022-12-26T01:52:23.942Z,8.79303
2022-12-26T01:55:49.290Z,8.762817
2022-12-26T01:59:14.555Z,8.762817
2022-12-26T02:02:40.040Z,8.803101
2022-12-26T02:06:05.247Z,8.803101
2022-12-26T02:09:30.523Z,8.813171
2022-12-26T02:12:55.850Z,8.772888
2022-12-26T02:16:21.137Z,8.772888
2022-12-26T02:19:46.404Z,8.772888
2022-12-26T02:23:11.641Z,8.712463
2022-12-26T02:26:36.922Z,8.772888
2022-12-26T02:30:02.267Z,8.772888
2022-12-26T02:33:27.492Z,8.712463
2022-12-26T02:36:52.765Z,8.682251
2022-12-26T02:40:18.057Z,8.732605
2022-12-26T02:43:43.343Z,8.732605
2022-12-26T02:47:08.637Z,8.772888
2022-12-26T02:50:33.836Z,8.742676
2022-12-26T02:53:59.068Z,8.702393
2022-12-26T02:57:24.357Z,8.702393
2022-12-26T03:00:49.679Z,8.712463
2022-12-26T03:04:14.901Z,8.742676
2022-12-26T03:07:40.148Z,8.762817
2022-12-26T03:11:05.413Z,8.762817
2022-12-26T03:14:30.658Z,8.742676
2022-12-26T03:17:55.967Z,8.712463
2022-12-26T03:21:21.293Z,8.712463
2022-12-26T03:24:46.508Z,8.712463
2022-12-26T03:28:13.810Z,8.682251
2022-12-26T03:31:37.016Z,8.662109
2022-12-26T03:35:02.349Z,8.742676
2022-12-26T03:38:27.646Z,8.762817
2022-12-26T03:41:52.862Z,8.813171
2022-12-26T03:45:18.167Z,8.79303
2022-12-26T03:48:43.459Z,8.803101
2022-12-26T03:52:08.798Z,8.79303
2022-12-26T03:55:34.076Z,8.79303
2022-12-26T03:58:59.376Z,8.833313
2022-12-26T04:02:24.775Z,8.863525
2022-12-26T04:05:49.974Z,8.913879
2022-12-26T04:09:15.245Z,8.92395
2022-12-26T04:12:40.565Z,8.984375
2022-12-26T04:16:05.840Z,8.984375
2022-12-26T04:19:31.088Z,8.994446
2022-12-26T04:22:56.334Z,8.984375
2022-12-26T04:26:21.685Z,8.964233
2022-12-26T04:29:46.973Z,8.913879
2022-12-26T04:33:12.261Z,8.863525
2022-12-26T04:36:37.528Z,8.913879
2022-12-26T04:40:02.807Z,8.92395
2022-12-26T04:43:47.688Z,8.92395
2022-12-26T04:46:53.431Z,8.964233
2022-12-26T04:50:18.600Z,8.984375
2022-12-26T04:53:46.264Z,9.024658
2022-12-26T04:57:09.098Z,8.964233
2022-12-26T05:00:34.322Z,8.944092
2022-12-26T05:03:59.721Z,8.944092
2022-12-26T05:07:24.923Z,8.964233
2022-12-26T05:10:50.191Z,8.954163
2022-12-26T05:14:15.436Z,8.994446
2022-12-26T05:17:40.703Z,9.0448
2022-12-26T05:21:05.989Z,9.014587
2022-12-26T05:24:31.280Z,9.024658
2022-12-26T05:27:56.536Z,9.0448
2022-12-26T05:31:21.848Z,9.075012
2022-12-26T05:34:47.101Z,9.075012
2022-12-26T05:38:12.363Z,9.054871
2022-12-26T05:41:37.638Z,8.994446
2022-12-26T05:45:02.908Z,8.964233
2022-12-26T05:48:28.139Z,8.984375
2022-12-26T05:51:53.382Z,9.014587
2022-12-26T05:55:18.671Z,9.014587
2022-12-26T05:58:43.902Z,8.994446
2022-12-26T06:02:09.242Z,9.014587
2022-12-26T06:05:34.443Z,9.054871
2022-12-26T06:08:59.730Z,9.095154
2022-12-26T06:12:25.043Z,9.17572
2022-12-26T06:15:50.340Z,9.205933
2022-12-26T06:19:15.578Z,9.205933
2022-12-26T06:22:40.791Z,9.226074
2022-12-26T06:26:06.089Z,9.276428
2022-12-26T06:29:31.423Z,9.316711
2022-12-26T06:32:56.700Z,9.326782
2022-12-26T06:36:21.946Z,9.326782
2022-12-26T06:39:47.198Z,9.316711
2022-12-26T06:43:12.451Z,9.346924
2022-12-26T06:46:37.873Z,9.377136
2022-12-26T06:50:03.052Z,9.316711
2022-12-26T06:53:28.342Z,9.286499
2022-12-26T06:56:53.667Z,9.286499
2022-12-26T07:00:18.961Z,9.236145
2022-12-26T07:03:50.657Z,9.256287
2022-12-26T07:07:09.634Z,9.256287
2022-12-26T07:10:34.914Z,9.236145
2022-12-26T07:14:00.216Z,9.286499
2022-12-26T07:17:25.480Z,9.316711
2022-12-26T07:20:50.736Z,9.326782
2022-12-26T07:24:16.059Z,9.306641
2022-12-26T07:27:41.304Z,9.306641
2022-12-26T07:31:06.581Z,9.226074
2022-12-26T07:34:32.348Z,9.236145
2022-12-26T07:37:57.203Z,9.256287
2022-12-26T07:41:22.492Z,9.286499
2022-12-26T07:44:47.762Z,9.316711
2022-12-26T07:48:13.092Z,9.356995
2022-12-26T07:51:38.541Z,9.346924
2022-12-26T07:55:03.994Z,9.356995
2022-12-26T07:58:29.261Z,9.377136
2022-12-26T08:01:54.725Z,9.346924
2022-12-26T08:05:19.870Z,9.377136
2022-12-26T08:08:50.389Z,9.457703
2022-12-26T08:12:10.412Z,9.467773
2022-12-26T08:15:35.738Z,9.497986
2022-12-26T08:19:01.100Z,9.558411
2022-12-26T08:22:26.329Z,9.528198
2022-12-26T08:25:51.578Z,9.508057
2022-12-26T08:29:16.866Z,9.467773
2022-12-26T08:32:44.137Z,9.497986
2022-12-26T08:36:07.550Z,9.558411
2022-12-26T08:39:32.835Z,9.578552
2022-12-26T08:43:21.267Z,9.689331
2022-12-26T08:46:24.280Z,9.67926
2022-12-26T08:49:49.510Z,9.719543
2022-12-26T08:53:14.932Z,9.719543
2022-12-26T08:56:40.319Z,9.709473
2022-12-26T09:00:05.633Z,9.709473
2022-12-26T09:03:31.025Z,9.67926
2022-12-26T09:06:56.231Z,9.608765
2022-12-26T09:10:21.558Z,9.477844
2022-12-26T09:13:46.823Z,9.457703
2022-12-26T09:17:12.197Z,9.417419
2022-12-26T09:20:37.477Z,9.42749
2022-12-26T09:24:02.753Z,9.598694
2022-12-26T09:27:28.037Z,9.578552
2022-12-26T09:30:53.409Z,9.467773
2022-12-26T09:34:18.705Z,9.42749
2022-12-26T09:37:44.054Z,9.477844
2022-12-26T09:41:09.375Z,9.467773
2022-12-26T09:44:34.611Z,9.397278
2022-12-26T09:47:59.810Z,9.417419
2022-12-26T09:51:25.031Z,9.417419
2022-12-26T09:54:50.285Z,9.387207
2022-12-26T09:58:15.445Z,9.377136
2022-12-26T10:01:40.770Z,9.346924
2022-12-26T10:05:05.952Z,9.397278
2022-12-26T10:08:31.076Z,9.457703
2022-12-26T10:11:56.344Z,9.508057
2022-12-26T10:15:21.513Z,9.528198
2022-12-26T10:18:46.679Z,9.568481
2022-12-26T10:22:11.881Z,9.558411
2022-12-26T10:25:37.145Z,9.528198
2022-12-26T10:29:02.362Z,9.477844
2022-12-26T10:32:28.157Z,9.568481
2022-12-26T10:35:52.734Z,9.508057
2022-12-26T10:39:17.951Z,9.538269
2022-12-26T10:42:43.205Z,9.558411
2022-12-26T10:46:08.481Z,9.568481
2022-12-26T10:49:33.655Z,9.568481
2022-12-26T10:52:58.866Z,9.598694
2022-12-26T10:56:24.082Z,9.649048
2022-12-26T10:59:49.355Z,9.578552
2022-12-26T11:03:14.678Z,9.467773
2022-12-26T11:06:39.696Z,9.508057
2022-12-26T11:10:04.920Z,9.497986
2022-12-26T11:13:30.115Z,9.417419
2022-12-26T11:16:55.320Z,9.346924
2022-12-26T11:20:20.538Z,9.326782
2022-12-26T11:23:45.687Z,9.377136
2022-12-26T11:27:12.787Z,9.356995
2022-12-26T11:30:36.094Z,9.346924
2022-12-26T11:34:01.323Z,9.316711
2022-12-26T11:37:26.501Z,9.226074
2022-12-26T11:40:51.664Z,9.105225
2022-12-26T11:44:16.844Z,8.984375
2022-12-26T11:47:42.031Z,8.994446
2022-12-26T11:51:07.226Z,9.095154
2022-12-26T11:54:32.491Z,9.0448
2022-12-26T11:57:58.815Z,9.095154
2022-12-26T12:01:22.830Z,9.145508
2022-12-26T12:04:47.973Z,9.0448
2022-12-26T12:08:13.128Z,9.145508
2022-12-26T12:11:38.341Z,9.145508
2022-12-26T12:15:03.537Z,9.165649
2022-12-26T12:18:28.704Z,9.054871
2022-12-26T12:21:53.885Z,8.984375
2022-12-26T12:25:19.101Z,9.024658
2022-12-26T12:28:44.300Z,9.075012
2022-12-26T12:32:09.460Z,9.014587
2022-12-26T12:35:34.650Z,9.0448
2022-12-26T12:38:59.845Z,9.0448
2022-12-26T12:42:24.984Z,9.135437
2022-12-26T12:45:50.255Z,9.105225
2022-12-26T12:49:15.408Z,9.165649
2022-12-26T12:52:40.567Z,9.125366
2022-12-26T12:56:05.749Z,9.135437
2022-12-26T12:59:30.936Z,9.17572
2022-12-26T13:02:56.270Z,9.195862
2022-12-26T13:06:21.301Z,9.226074
2022-12-26T13:09:46.500Z,9.195862
2022-12-26T13:13:11.698Z,9.205933
2022-12-26T13:16:36.906Z,9.236145
2022-12-26T13:20:02.951Z,9.226074
2022-12-26T13:23:27.177Z,9.326782
2022-12-26T13:26:52.359Z,9.356995
2022-12-26T13:30:17.546Z,9.286499
2022-12-26T13:33:42.722Z,9.256287
2022-12-26T13:37:07.936Z,9.195862
2022-12-26T13:40:33.114Z,9.195862
2022-12-26T13:43:58.330Z,9.105225
2022-12-26T13:47:23.479Z,9.165649
2022-12-26T13:50:55.108Z,9.195862
2022-12-26T13:54:13.864Z,9.236145
2022-12-26T13:57:38.999Z,9.17572
2022-12-26T14:01:04.332Z,9.195862
2022-12-26T14:04:29.422Z,9.135437
2022-12-26T14:07:54.570Z,9.135437
2022-12-26T14:11:19.787Z,9.195862
2022-12-26T14:14:49.506Z,9.135437
2022-12-26T14:18:10.722Z,9.024658
2022-12-26T14:21:35.885Z,9.024658
2022-12-26T14:25:01.069Z,9.075012
2022-12-26T14:28:26.258Z,9.0448
2022-12-26T15:04:19.856Z,8.873596
2022-12-26T15:08:22.030Z,8.954163
2022-12-26T15:11:47.193Z,8.994446
2022-12-26T15:15:13.086Z,8.964233
2022-12-26T15:18:42.903Z,8.893738
2022-12-26T15:22:03.715Z,8.913879
2022-12-26T15:25:29.050Z,8.92395
2022-12-26T15:28:54.249Z,8.92395
2022-12-26T15:32:19.612Z,8.893738
2022-12-26T15:35:44.870Z,8.873596
2022-12-26T15:39:10.246Z,8.873596
2022-12-26T15:42:35.438Z,8.79303
2022-12-26T15:46:00.814Z,8.843384
2022-12-26T15:49:26.030Z,8.762817
2022-12-26T15:52:51.261Z,8.702393
2022-12-26T15:56:16.536Z,8.742676
2022-12-26T15:59:41.684Z,8.803101
2022-12-26T16:03:07.184Z,8.732605
2022-12-26T16:06:32.629Z,8.762817
2022-12-26T16:09:58.040Z,8.682251
2022-12-26T16:13:23.712Z,8.662109
2022-12-26T16:16:49.166Z,8.500977
2022-12-26T16:20:18.663Z,7.967224
2022-12-26T16:23:39.649Z,7.634888
2022-12-26T16:27:04.879Z,7.483826
2022-12-26T16:30:30.252Z,7.423401
2022-12-26T16:33:55.673Z,7.373047
2022-12-26T16:37:20.955Z,7.232056
2022-12-26T16:40:46.134Z,7.302551
2022-12-26T16:44:11.303Z,7.28241
2022-12-26T16:47:36.512Z,7.131348
2022-12-26T16:51:01.601Z,7.060852
2022-12-26T16:54:27.466Z,7.091064
2022-12-26T16:57:53.617Z,7.121277
2022-12-26T17:01:19.083Z,7.101135
2022-12-26T17:04:44.456Z,7.16156
2022-12-26T17:08:09.933Z,7.201843
2022-12-26T17:11:35.421Z,7.232056
2022-12-26T17:15:00.728Z,7.342834
2022-12-26T17:18:25.888Z,7.342834
2022-12-26T17:21:51.092Z,7.242126
2022-12-26T17:25:16.303Z,7.201843
2022-12-26T17:28:41.483Z,7.232056
2022-12-26T17:32:06.706Z,7.232056
2022-12-26T17:35:41.534Z,7.242126
2022-12-26T17:38:57.164Z,7.16156
2022-12-26T17:42:22.352Z,7.060852
2022-12-26T17:45:47.571Z,7.060852
2022-12-26T17:49:13.075Z,7.060852
2022-12-26T17:52:38.273Z,7.070923
2022-12-26T17:56:03.537Z,7.16156
2022-12-26T17:59:28.671Z,7.232056
2022-12-26T18:02:54.106Z,7.211914
2022-12-26T18:06:19.124Z,7.201843
2022-12-26T18:09:44.548Z,7.232056
2022-12-26T18:13:10.090Z,7.28241
2022-12-26T18:16:35.454Z,7.403259
2022-12-26T18:20:00.655Z,7.463684
2022-12-26T18:23:25.879Z,7.433472
2022-12-26T18:26:51.119Z,7.373047
2022-12-26T18:30:16.301Z,7.423401
2022-12-26T18:33:41.468Z,7.483826
2022-12-26T18:37:06.675Z,7.503967
2022-12-26T18:40:31.910Z,7.53418
2022-12-26T18:43:57.085Z,7.403259
2022-12-26T18:47:22.313Z,7.342834
2022-12-26T18:50:47.459Z,7.373047
2022-12-26T18:54:12.635Z,7.393188
2022-12-26T18:57:37.839Z,7.483826
2022-12-26T19:01:03.093Z,7.483826
2022-12-26T19:04:28.280Z,7.524109
2022-12-26T19:07:53.384Z,7.503967
2022-12-26T19:11:18.582Z,7.604675
2022-12-26T19:14:43.766Z,7.584534
2022-12-26T19:18:08.942Z,7.524109
2022-12-26T19:21:34.146Z,7.503967
2022-12-26T19:24:59.375Z,7.16156
2022-12-26T19:28:24.561Z,7.101135
2022-12-26T19:31:49.758Z,7.16156
2022-12-26T19:35:14.910Z,7.16156
2022-12-26T19:38:40.116Z,7.16156
2022-12-26T19:42:05.293Z,7.131348
2022-12-26T19:45:30.517Z,7.091064
2022-12-26T19:48:55.660Z,7.121277
2022-12-26T19:52:20.841Z,7.16156
2022-12-26T19:55:46.067Z,7.171631
2022-12-26T19:59:11.209Z,7.211914
2022-12-26T20:02:36.516Z,7.272339
2022-12-26T20:06:01.607Z,7.171631
2022-12-26T20:09:26.795Z,7.03064
2022-12-26T20:12:51.990Z,7.020569
2022-12-26T20:16:37.749Z,6.950073
2022-12-26T20:19:42.346Z,6.869507
2022-12-26T20:23:07.530Z,6.90979
2022-12-26T20:26:32.718Z,6.879578
2022-12-26T20:29:57.900Z,6.879578
2022-12-26T20:33:23.054Z,6.879578
2022-12-26T20:36:48.249Z,6.668091
2022-12-26T20:40:13.425Z,6.637878
2022-12-26T20:43:38.584Z,6.668091
2022-12-26T20:47:03.816Z,6.738586
2022-12-26T20:50:28.964Z,6.768799
2022-12-26T20:53:54.140Z,6.809082
2022-12-26T20:57:19.341Z,6.728516
2022-12-26T21:00:44.536Z,6.617737
2022-12-26T21:04:09.730Z,6.517029
2022-12-26T21:07:34.872Z,6.587524
2022-12-26T21:11:00.084Z,6.557312
2022-12-26T21:14:25.260Z,6.506958
2022-12-26T21:17:50.455Z,6.517029
2022-12-26T21:21:15.657Z,6.547241
2022-12-26T21:24:40.857Z,6.668091
2022-12-26T21:28:06.015Z,6.587524
2022-12-26T21:31:31.194Z,6.607666
2022-12-26T21:34:56.352Z,6.617737
2022-12-26T21:38:21.596Z,6.547241
2022-12-26T21:41:46.776Z,6.547241
2022-12-26T21:45:11.966Z,6.557312
2022-12-26T21:48:37.136Z,6.577454
2022-12-26T21:52:02.318Z,6.65802
2022-12-26T21:55:27.532Z,6.617737
2022-12-26T21:58:52.683Z,6.607666
2022-12-26T22:02:18.012Z,6.617737
2022-12-26T22:05:43.076Z,6.587524
2022-12-26T22:09:08.258Z,6.476746
2022-12-26T22:12:33.444Z,6.436462
2022-12-26T22:15:58.743Z,6.456604
2022-12-26T22:19:23.821Z,6.456604
2022-12-26T22:22:49.031Z,6.486816
2022-12-26T22:26:14.300Z,6.396179
2022-12-26T22:29:39.464Z,6.365967
2022-12-26T22:33:04.629Z,6.436462
2022-12-26T22:36:29.830Z,6.325684
2022-12-26T22:39:55.018Z,6.224976
2022-12-26T22:43:20.185Z,6.265259
2022-12-26T22:46:45.422Z,6.224976
2022-12-26T22:50:10.534Z,6.144409
2022-12-26T22:53:35.719Z,6.194763
2022-12-26T22:57:00.905Z,6.063843
2022-12-26T23:00:26.281Z,5.751648
2022-12-26T23:03:51.481Z,5.630798
2022-12-26T23:07:16.653Z,5.560303
2022-12-26T23:10:41.827Z,5.509949
2022-12-26T23:14:07.014Z,5.479736
2022-12-26T23:17:32.201Z,5.348816
2022-12-26T23:20:57.414Z,5.207825
2022-12-26T23:24:22.551Z,5.197754
2022-12-26T23:27:47.749Z,5.167542
2022-12-26T23:31:12.931Z,5.02655
2022-12-26T23:34:38.101Z,4.935913
2022-12-26T23:38:03.312Z,4.986267
2022-12-26T23:41:28.487Z,5.066833
2022-12-26T23:44:53.692Z,5.02655
2022-12-26T23:48:18.881Z,4.966125
2022-12-26T23:51:44.057Z,4.855347
2022-12-26T23:55:09.295Z,4.724426
2022-12-26T23:58:34.438Z,4.472656
